Decoded Metar for KOFP (RICHMOND/HANOVER in VA, USA) (IATA:OFP) | Meteo·Mobile Aviation Weather
aviador You're here:

KOFP Decoded Metar

RICHMOND/HANOVER in VA, USA
Report Time2019-02-17 04:54:00
UTC Time2019-02-17 05:50:09
Flight Rules vfr VFR
WindCalm
Visibility9999 m
Phenomena:N/A
Clouds:N/A
Expected CloudBase > 400 ft AGL from Temp-Dew spread
CeilingNone
Temp-2°C (ISA -17)
Dew Point-3°C (93% RH)
AAT-4.4°C
QNH1018 hPa
Density Alt-1,936 ft
Elevation203 ft
Report Wrong Elevation
Raw Report
KOFP 170454Z AUTO 00000KT 9SM CLR M02/M03 A3005 RMK AO2 SLP178
I1000 T10171033 401391017=

Extra information for KOFP:More info

Metar Taf Metar & Taf Last 4 Metars F.Rules Stats Wind Profile Meteogram Temp Stats Airport Information Weather charts Add Link Nearby VenuesMetar ALERT Operation Metar Decoded Social comments

AIRNAV info for KOFP